createdAt,value
2023-05-19T00:02:34.010Z,85.26
2023-05-19T00:06:47.814Z,85.62
2023-05-19T00:11:22.126Z,85.36
2023-05-19T00:16:11.925Z,84.89
2023-05-19T00:20:42.000Z,84.88
2023-05-19T00:25:06.254Z,84.87
2023-05-19T00:29:51.813Z,85.17
2023-05-19T00:34:18.918Z,85.12
2023-05-19T00:38:51.874Z,85.28
2023-05-19T00:43:32.955Z,85.93
2023-05-19T00:48:13.881Z,86.60
2023-05-19T00:57:56.614Z,86.05
2023-05-19T01:02:25.548Z,86.18
2023-05-19T01:07:00.375Z,85.96
2023-05-19T01:16:20.326Z,85.18
2023-05-19T01:21:20.872Z,85.04
2023-05-19T01:25:56.914Z,85.26
2023-05-19T01:30:26.315Z,85.84
2023-05-19T01:35:09.539Z,86.13
2023-05-19T01:39:48.236Z,86.11
2023-05-19T01:44:22.807Z,86.13
2023-05-19T01:49:01.884Z,85.53
2023-05-19T01:53:58.571Z,85.94
2023-05-19T01:58:43.625Z,86.16
2023-05-19T02:03:23.097Z,85.14
2023-05-19T02:08:15.125Z,85.30
2023-05-19T02:12:45.002Z,85.64
2023-05-19T02:17:49.056Z,85.79
2023-05-19T02:22:12.431Z,85.81
2023-05-19T02:26:48.611Z,86.28
2023-05-19T02:31:21.504Z,85.71
2023-05-19T02:35:47.679Z,86.03
2023-05-19T02:40:15.220Z,86.46
2023-05-19T02:44:54.116Z,86.05
2023-05-19T02:54:25.142Z,85.56
2023-05-19T02:58:58.436Z,85.24
2023-05-19T03:09:01.065Z,86.16
2023-05-19T03:13:23.293Z,86.70
2023-05-19T03:22:45.711Z,86.04
2023-05-19T03:27:24.805Z,85.98
2023-05-19T03:32:04.013Z,85.81
2023-05-19T03:37:00.156Z,85.99
2023-05-19T03:41:22.971Z,86.65
2023-05-19T03:45:52.950Z,86.36
2023-05-19T03:50:16.263Z,86.70
2023-05-19T03:54:47.998Z,86.69
2023-05-19T03:59:11.926Z,86.36
2023-05-19T04:03:37.960Z,86.70
2023-05-19T04:08:39.472Z,86.86
2023-05-19T04:13:18.660Z,86.83
2023-05-19T04:17:43.656Z,87.01
2023-05-19T04:22:25.779Z,86.41
2023-05-19T04:26:55.661Z,86.34
2023-05-19T04:31:20.732Z,86.69
2023-05-19T04:35:52.261Z,86.69
2023-05-19T04:40:20.363Z,86.95
2023-05-19T04:44:59.177Z,86.91
2023-05-19T04:49:38.136Z,86.58
2023-05-19T04:54:08.276Z,86.12
2023-05-19T04:58:39.696Z,86.26
2023-05-19T05:03:29.155Z,86.18
2023-05-19T05:07:53.207Z,86.22
2023-05-19T05:12:59.890Z,86.49
2023-05-19T05:17:26.204Z,86.69
2023-05-19T05:21:59.517Z,87.22
2023-05-19T05:26:27.239Z,86.73
2023-05-19T05:30:52.382Z,86.91
2023-05-19T05:35:23.045Z,86.98
2023-05-19T05:39:46.941Z,86.59
2023-05-19T05:44:16.773Z,86.76
2023-05-19T05:48:25.632Z,86.43
2023-05-19T05:52:52.752Z,86.21
2023-05-19T05:57:19.261Z,85.81
2023-05-19T06:01:45.428Z,85.36
2023-05-19T06:06:09.654Z,85.58
2023-05-19T06:10:34.887Z,85.47
2023-05-19T06:15:01.527Z,85.48
2023-05-19T06:19:37.661Z,85.53
2023-05-19T06:24:08.635Z,85.48
2023-05-19T06:28:33.574Z,85.49
2023-05-19T06:32:58.648Z,85.15
2023-05-19T06:37:28.128Z,84.69
2023-05-19T06:41:56.259Z,84.08
2023-05-19T06:46:20.353Z,84.25
2023-05-19T06:50:48.721Z,84.04
2023-05-19T06:55:20.535Z,83.13
2023-05-19T06:59:46.700Z,83.24
2023-05-19T07:04:13.560Z,83.12
2023-05-19T07:08:38.858Z,82.72
2023-05-19T07:12:45.588Z,82.38
2023-05-19T07:17:11.549Z,82.43
2023-05-19T07:21:36.514Z,81.43
2023-05-19T07:26:00.799Z,81.25
2023-05-19T07:30:24.843Z,80.27
2023-05-19T07:34:51.945Z,80.36
2023-05-19T07:39:10.034Z,80.73
2023-05-19T07:43:33.956Z,80.92
2023-05-19T07:47:59.960Z,80.46
2023-05-19T07:52:31.008Z,79.32
2023-05-19T07:57:00.214Z,79.23
2023-05-19T08:01:24.477Z,78.95
2023-05-19T08:05:48.689Z,78.27
2023-05-19T08:10:13.627Z,77.59
2023-05-19T08:14:38.764Z,77.11
2023-05-19T08:19:09.286Z,75.41
2023-05-19T08:23:35.212Z,74.73
2023-05-19T08:27:38.784Z,74.56
2023-05-19T08:32:03.816Z,75.38
2023-05-19T08:36:21.961Z,75.03
2023-05-19T08:40:51.270Z,74.88
2023-05-19T08:45:17.300Z,74.77
2023-05-19T08:49:41.904Z,73.64
2023-05-19T08:54:13.884Z,73.46
2023-05-19T08:58:48.495Z,73.23
2023-05-19T09:07:41.331Z,70.82
2023-05-19T09:12:06.439Z,69.87
2023-05-19T09:16:30.611Z,67.55
2023-05-19T09:20:55.851Z,66.47
2023-05-19T09:25:20.861Z,66.63
2023-05-19T09:29:44.717Z,66.46
2023-05-19T09:34:08.575Z,66.18
2023-05-19T09:38:32.515Z,66.24
2023-05-19T09:42:58.199Z,65.09
2023-05-19T09:47:30.962Z,64.56
2023-05-19T09:51:57.051Z,62.83
2023-05-19T09:56:15.176Z,63.07
2023-05-19T10:00:39.208Z,61.95
2023-05-19T10:05:03.244Z,62.73
2023-05-19T10:09:26.968Z,61.78
2023-05-19T10:13:51.918Z,61.29
2023-05-19T10:18:18.868Z,61.34
2023-05-19T10:22:42.950Z,61.26
2023-05-19T10:27:06.968Z,61.03
2023-05-19T10:31:31.172Z,60.76
2023-05-19T10:36:10.197Z,60.72
2023-05-19T10:56:43.227Z,51.84
2023-05-19T11:01:42.865Z,51.30
2023-05-19T11:06:09.541Z,52.39
2023-05-19T11:10:39.191Z,53.30
2023-05-19T11:15:04.071Z,52.95
2023-05-19T11:19:30.368Z,51.64
2023-05-19T11:24:04.355Z,52.12
2023-05-19T11:28:33.265Z,51.52
2023-05-19T11:32:59.401Z,52.07
2023-05-19T11:37:07.412Z,51.42
2023-05-19T11:41:31.060Z,51.39
2023-05-19T11:45:58.596Z,51.45
2023-05-19T11:50:25.206Z,52.09
2023-05-19T11:54:49.119Z,52.57
2023-05-19T11:59:07.838Z,51.80
2023-05-19T12:03:31.918Z,52.66
2023-05-19T12:07:56.025Z,53.30
2023-05-19T12:12:20.005Z,52.72
2023-05-19T12:16:44.040Z,52.72
2023-05-19T12:21:11.040Z,53.17
2023-05-19T12:25:36.301Z,52.96
2023-05-19T12:30:02.727Z,52.97
2023-05-19T12:34:26.815Z,53.33
2023-05-19T12:38:43.842Z,53.18
2023-05-19T12:43:10.741Z,52.13
2023-05-19T12:47:34.927Z,52.44
2023-05-19T12:52:03.505Z,50.68
2023-05-19T12:56:22.828Z,49.40
2023-05-19T13:00:36.764Z,45.45
2023-05-19T13:05:01.774Z,46.62
2023-05-19T13:09:25.914Z,46.76
2023-05-19T13:13:50.317Z,46.91
2023-05-19T13:18:14.332Z,46.87
2023-05-19T13:22:20.759Z,46.26
2023-05-19T13:26:44.844Z,46.19
2023-05-19T13:31:09.141Z,45.47
2023-05-19T13:35:15.757Z,44.57
2023-05-19T13:39:39.899Z,44.45
2023-05-19T13:43:45.211Z,45.57
2023-05-19T13:48:09.238Z,44.57
2023-05-19T13:52:34.249Z,45.08
2023-05-19T13:56:58.408Z,45.24
2023-05-19T14:01:22.417Z,44.41
2023-05-19T14:05:46.459Z,43.20
2023-05-19T14:10:10.421Z,44.23
2023-05-19T14:14:26.939Z,44.63
2023-05-19T14:18:50.935Z,44.05
2023-05-19T14:23:13.808Z,44.53
2023-05-19T14:27:37.646Z,45.19
2023-05-19T14:32:01.784Z,46.03
2023-05-19T14:36:25.956Z,46.31
2023-05-19T14:40:56.586Z,46.92
2023-05-19T14:46:06.327Z,46.74
2023-05-19T14:51:21.542Z,47.40
2023-05-19T14:56:28.436Z,47.33
2023-05-19T15:01:39.507Z,47.30
2023-05-19T15:06:43.351Z,47.54
2023-05-19T15:12:06.569Z,47.32
2023-05-19T15:17:11.594Z,47.93
2023-05-19T15:22:21.280Z,48.04
2023-05-19T15:27:40.677Z,47.49
2023-05-19T15:32:44.840Z,47.51
2023-05-19T15:37:52.579Z,48.38
2023-05-19T15:42:57.692Z,48.28
2023-05-19T15:48:08.237Z,48.21
2023-05-19T15:53:23.235Z,48.33
2023-05-19T15:58:43.054Z,48.08
2023-05-19T16:03:42.243Z,48.57
2023-05-19T16:08:21.812Z,48.86
2023-05-19T16:12:58.084Z,49.35
2023-05-19T16:17:23.968Z,50.02
2023-05-19T16:22:06.664Z,50.67
2023-05-19T16:26:30.605Z,51.02
2023-05-19T16:31:02.699Z,51.19
2023-05-19T16:35:34.708Z,52.34
2023-05-19T16:40:10.627Z,53.03
2023-05-19T16:44:39.979Z,54.02
2023-05-19T16:49:17.996Z,54.62
2023-05-19T16:53:22.670Z,55.34
2023-05-19T16:57:46.848Z,56.24
2023-05-19T17:02:11.975Z,56.94
2023-05-19T17:06:39.068Z,57.29
2023-05-19T17:11:02.524Z,57.78
2023-05-19T17:16:11.450Z,58.32
2023-05-19T17:21:18.370Z,58.79
2023-05-19T17:26:43.336Z,59.01
2023-05-19T17:31:50.008Z,59.41
2023-05-19T17:36:55.858Z,59.58
2023-05-19T17:42:01.580Z,59.97
2023-05-19T17:46:37.777Z,60.55
2023-05-19T17:51:02.753Z,60.80
2023-05-19T17:55:28.912Z,61.16
2023-05-19T17:59:51.940Z,61.55
2023-05-19T18:04:20.044Z,62.07
2023-05-19T18:08:52.014Z,62.70
2023-05-19T18:13:18.946Z,63.25
2023-05-19T18:17:51.895Z,64.25
2023-05-19T18:22:15.105Z,64.71
2023-05-19T18:26:51.282Z,64.95
2023-05-19T18:31:19.300Z,65.13
2023-05-19T18:35:48.159Z,65.25
2023-05-19T18:40:13.141Z,65.43
2023-05-19T18:44:42.891Z,65.69
2023-05-19T18:49:55.596Z,65.69
2023-05-19T18:55:07.346Z,65.91
2023-05-19T18:59:57.440Z,66.07
2023-05-19T19:04:10.053Z,66.40
2023-05-19T19:08:42.195Z,66.52
2023-05-19T19:13:15.212Z,66.57
2023-05-19T19:17:40.266Z,66.90
2023-05-19T19:21:57.255Z,67.11
2023-05-19T19:26:22.193Z,67.31
2023-05-19T19:30:53.404Z,67.12
2023-05-19T19:35:21.103Z,67.06
2023-05-19T19:39:57.062Z,67.32
2023-05-19T19:44:23.036Z,67.32
2023-05-19T19:49:07.497Z,67.27
2023-05-19T19:54:24.613Z,67.39
2023-05-19T19:59:41.082Z,67.66
2023-05-19T20:04:44.994Z,68.39
2023-05-19T20:09:47.063Z,68.67
2023-05-19T20:14:35.739Z,68.58
2023-05-19T20:19:52.808Z,68.78
2023-05-19T20:25:06.244Z,69.13
2023-05-19T20:30:18.555Z,69.21
2023-05-19T20:35:37.261Z,69.34
2023-05-19T20:40:41.503Z,69.60
2023-05-19T20:45:45.492Z,69.47
2023-05-19T20:50:59.381Z,69.72
2023-05-19T20:56:16.263Z,70.25
2023-05-19T21:01:27.046Z,70.53
2023-05-19T21:06:32.858Z,70.76
2023-05-19T21:11:46.070Z,71.06
2023-05-19T21:17:03.451Z,71.25
2023-05-19T21:22:15.428Z,71.36
2023-05-19T21:26:59.937Z,71.69
2023-05-19T21:32:07.916Z,71.91
2023-05-19T21:37:29.301Z,72.13
2023-05-19T21:42:37.810Z,71.98
2023-05-19T21:47:54.414Z,71.99
2023-05-19T21:53:08.607Z,72.25
2023-05-19T21:58:19.361Z,72.38
2023-05-19T22:02:44.405Z,72.29
2023-05-19T22:07:20.485Z,72.53
2023-05-19T22:12:04.672Z,72.62
2023-05-19T22:16:29.707Z,72.83
2023-05-19T22:21:42.568Z,72.81
2023-05-19T22:27:05.995Z,72.72
2023-05-19T22:32:11.656Z,73.00
2023-05-19T22:37:15.141Z,73.03
2023-05-19T22:42:19.079Z,73.07
2023-05-19T22:47:29.842Z,73.38
2023-05-19T22:52:36.614Z,73.69
2023-05-19T22:57:44.556Z,73.93
2023-05-19T23:02:49.522Z,73.93
2023-05-19T23:07:53.787Z,73.95
2023-05-19T23:13:10.025Z,74.07
2023-05-19T23:18:03.905Z,74.08
2023-05-19T23:22:27.876Z,74.33
2023-05-19T23:27:02.047Z,74.52
2023-05-19T23:31:37.875Z,74.64
2023-05-19T23:36:20.076Z,74.99
2023-05-19T23:46:40.112Z,75.06
2023-05-19T23:51:45.052Z,74.71
2023-05-19T23:56:51.959Z,75.08
